Terminal Aerodrome Forecast
Issued by NWS

Home | Current Version | Previous Version | Text Only | Print | Product List | Glossary On
Versions: 1 2 3 4 5 6 7 8 9 10 11 12 13 14 15 16 17
000
FTUS42 KTAE 221720
TAFECP
TAF
KECP 221720Z 2218/2318 01008KT P6SM OVC020
     FM230000 02008KT 6SM -SHRA OVC015
     FM231200 01006KT P6SM BKN015=

USA.gov is the U.S. government's official web portal to all federal, state and local government web resources and services.